Terminal Aerodrome Forecast
Issued by NWS Melbourne, FL

Home | Current Version | Previous Version | Text Only | Print | Product List | Glossary On
Versions: 1 2 3 4 5 6 7 8 9 10 11 12 13 14 15 16 17 18 19 20 21 22 23 24 25 26 27 28 29 30
668
FTUS42 KMLB 011125
TAFMCO
TAF
KMCO 011125Z 0112/0212 13003KT P6SM FEW015 FEW250
     FM011300 35005KT P6SM SCT030 SCT250
     FM011800 VRB04KT P6SM VCTS SCT045CB SCT250
     FM020000 09004KT P6SM VCSH SCT040 SCT060 BKN250=

USA.gov is the U.S. government's official web portal to all federal, state and local government web resources and services.